createdAt,value
2023-05-12T00:02:25.647Z,101153.63
2023-05-12T00:05:32.250Z,101151.81
2023-05-12T00:08:36.332Z,101141.16
2023-05-12T00:11:40.494Z,101161.09
2023-05-12T00:14:46.550Z,101128.19
2023-05-12T00:17:51.682Z,101151.34
2023-05-12T00:20:58.122Z,101142.56
2023-05-12T00:24:05.062Z,101136.63
2023-05-12T00:27:11.855Z,101133.00
2023-05-12T00:30:15.977Z,101124.78
2023-05-12T00:33:20.580Z,101145.09
2023-05-12T00:36:24.870Z,101113.34
2023-05-12T00:39:28.858Z,101121.84
2023-05-12T00:42:35.128Z,101109.59
2023-05-12T00:45:54.801Z,101117.28
2023-05-12T00:49:01.206Z,101109.56
2023-05-12T00:52:05.699Z,101110.03
2023-05-12T00:55:10.660Z,101086.78
2023-05-12T00:58:17.487Z,101119.13
2023-05-12T01:01:30.081Z,101121.19
2023-05-12T01:04:36.812Z,101106.59
2023-05-12T01:07:46.753Z,101111.22
2023-05-12T01:10:50.887Z,101085.38
2023-05-12T01:13:57.747Z,101097.16
2023-05-12T01:17:06.432Z,101101.22
2023-05-12T01:20:22.280Z,101109.44
2023-05-12T01:23:40.799Z,101099.97
2023-05-12T01:27:11.643Z,101097.63
2023-05-12T01:30:19.750Z,101097.16
2023-05-12T01:33:24.361Z,101070.00
2023-05-12T01:36:28.816Z,101084.13
2023-05-12T01:39:38.237Z,101081.13
2023-05-12T01:42:46.964Z,101085.84
2023-05-12T01:45:52.021Z,101084.38
2023-05-12T01:49:19.614Z,100996.94
2023-05-12T01:52:26.166Z,101044.34
2023-05-12T01:55:36.288Z,101069.38
2023-05-12T01:58:45.041Z,101062.13
2023-05-12T02:01:49.289Z,101024.13
2023-05-12T02:05:01.012Z,101056.38
2023-05-12T02:08:08.208Z,101026.72
2023-05-12T02:11:12.778Z,101045.25
2023-05-12T02:14:17.048Z,101032.03
2023-05-12T02:17:21.869Z,101014.94
2023-05-12T02:20:27.063Z,101036.75
2023-05-12T02:23:33.612Z,101029.75
2023-05-12T02:26:37.958Z,101019.25
2023-05-12T02:29:45.695Z,101015.88
2023-05-12T02:32:50.095Z,101023.44
2023-05-12T02:36:02.992Z,101022.38
2023-05-12T02:39:07.343Z,101027.13
2023-05-12T02:42:12.031Z,101018.09
2023-05-12T02:45:16.589Z,101020.66
2023-05-12T02:48:24.581Z,101003.63
2023-05-12T02:51:47.089Z,100927.13
2023-05-12T02:54:53.859Z,101015.31
2023-05-12T02:58:00.209Z,101005.59
2023-05-12T03:01:11.482Z,100993.47
2023-05-12T03:04:24.451Z,100943.41
2023-05-12T03:07:35.909Z,100958.97
2023-05-12T03:10:46.331Z,100938.13
2023-05-12T03:14:33.152Z,100928.19
2023-05-12T03:17:45.675Z,100957.47
2023-05-12T03:20:49.894Z,100944.16
2023-05-12T03:23:54.080Z,100972.75
2023-05-12T03:26:59.781Z,100929.84
2023-05-12T03:30:09.436Z,100956.22
2023-05-12T03:33:13.997Z,100950.28
2023-05-12T03:36:22.164Z,100915.47
2023-05-12T03:39:40.177Z,100881.47
2023-05-12T03:42:46.990Z,100939.66
2023-05-12T03:45:55.801Z,100924.25
2023-05-12T03:49:28.131Z,100930.78
2023-05-12T03:52:30.121Z,100914.31
2023-05-12T03:55:43.399Z,100924.91
2023-05-12T03:58:51.558Z,100883.28
2023-05-12T04:02:02.846Z,100889.38
2023-05-12T04:05:09.086Z,100870.94
2023-05-12T04:08:13.308Z,100902.91
2023-05-12T04:11:22.716Z,100901.25
2023-05-12T04:14:35.264Z,100892.44
2023-05-12T04:17:43.861Z,100874.25
2023-05-12T04:20:57.589Z,100882.38
2023-05-12T04:24:02.194Z,100883.50
2023-05-12T04:27:12.294Z,100865.34
2023-05-12T04:30:17.693Z,100863.94
2023-05-12T04:33:22.433Z,100863.31
2023-05-12T04:36:29.116Z,100857.41
2023-05-12T04:39:33.571Z,100845.94
2023-05-12T04:42:37.827Z,100840.47
2023-05-12T04:45:47.353Z,100821.56
2023-05-12T04:48:52.156Z,100815.03
2023-05-12T04:52:06.165Z,100793.03
2023-05-12T04:55:11.498Z,100830.06
2023-05-12T04:58:18.764Z,100796.22
2023-05-12T05:01:30.925Z,100821.66
2023-05-12T05:04:36.006Z,100785.84
2023-05-12T05:07:51.415Z,100806.63
2023-05-12T05:11:04.268Z,100805.03
2023-05-12T05:14:09.126Z,100770.84
2023-05-12T05:17:16.000Z,100794.00
2023-05-12T05:20:28.960Z,100776.50
2023-05-12T05:23:38.276Z,100787.69
2023-05-12T05:26:49.182Z,100773.41
2023-05-12T05:29:53.485Z,100767.41
2023-05-12T05:32:57.591Z,100765.44
2023-05-12T05:36:05.270Z,100770.84
2023-05-12T05:39:12.998Z,100749.56
2023-05-12T05:42:29.246Z,100755.78
2023-05-12T05:45:53.206Z,100750.84
2023-05-12T05:48:58.458Z,100748.44
2023-05-12T05:52:05.624Z,100736.19
2023-05-12T05:55:09.765Z,100740.81
2023-05-12T05:58:17.234Z,100722.59
2023-05-12T06:01:37.105Z,100707.38
2023-05-12T06:04:43.696Z,100731.38
2023-05-12T06:07:47.692Z,100711.00
2023-05-12T06:10:55.784Z,100717.22
2023-05-12T06:13:59.782Z,100713.63
2023-05-12T06:17:04.252Z,100704.94
2023-05-12T06:20:09.315Z,100714.97
2023-05-12T06:23:13.907Z,100709.16
2023-05-12T06:26:18.212Z,100707.31
2023-05-12T06:29:22.243Z,100706.72
2023-05-12T06:32:26.229Z,100695.56
2023-05-12T06:35:30.324Z,100694.19
2023-05-12T06:38:36.987Z,100694.69
2023-05-12T06:41:44.375Z,100668.78
2023-05-12T06:44:58.677Z,100686.00
2023-05-12T06:48:06.556Z,100674.72
2023-05-12T06:51:17.710Z,100662.56
2023-05-12T06:54:24.168Z,100644.31
2023-05-12T06:57:28.576Z,100678.75
2023-05-12T07:00:46.713Z,100676.25
2023-05-12T07:03:50.714Z,100661.09
2023-05-12T07:07:00.171Z,100653.22
2023-05-12T07:10:23.120Z,100632.38
2023-05-12T07:13:29.609Z,100676.09
2023-05-12T07:16:37.856Z,100656.34
2023-05-12T07:19:42.098Z,100669.41
2023-05-12T07:22:48.597Z,100664.28
2023-05-12T07:26:10.300Z,100657.66
2023-05-12T07:29:14.730Z,100666.19
2023-05-12T07:32:19.034Z,100657.38
2023-05-12T07:35:25.693Z,100665.06
2023-05-12T07:38:40.653Z,100659.59
2023-05-12T07:41:47.859Z,100634.00
2023-05-12T07:44:52.009Z,100656.63
2023-05-12T07:48:01.874Z,100664.31
2023-05-12T07:51:07.770Z,100632.97
2023-05-12T07:54:17.004Z,100662.47
2023-05-12T07:57:21.683Z,100642.63
2023-05-12T08:00:39.674Z,100651.94
2023-05-12T08:03:43.886Z,100654.75
2023-05-12T08:06:49.064Z,100650.66
2023-05-12T08:09:53.551Z,100615.19
2023-05-12T08:12:58.759Z,100645.75
2023-05-12T08:16:02.627Z,100645.03
2023-05-12T08:19:06.683Z,100646.22
2023-05-12T08:22:10.903Z,100615.63
2023-05-12T08:25:17.660Z,100615.81
2023-05-12T08:28:29.742Z,100613.25
2023-05-12T08:31:34.000Z,100612.50
2023-05-12T08:34:39.863Z,100599.44
2023-05-12T08:37:48.082Z,100609.44
2023-05-12T08:41:07.186Z,100621.47
2023-05-12T08:44:15.197Z,100579.13
2023-05-12T08:47:26.810Z,100618.81
2023-05-12T08:50:39.201Z,100595.78
2023-05-12T08:53:51.859Z,100580.94
2023-05-12T08:57:09.973Z,100621.81
2023-05-12T09:00:20.460Z,100604.31
2023-05-12T09:03:32.298Z,100611.91
2023-05-12T09:06:39.843Z,100552.91
2023-05-12T09:09:49.602Z,100587.44
2023-05-12T09:13:06.675Z,100603.75
2023-05-12T09:16:16.789Z,100601.28
2023-05-12T09:19:25.516Z,100580.47
2023-05-12T09:22:35.697Z,100607.59
2023-05-12T09:25:41.988Z,100610.56
2023-05-12T09:28:47.060Z,100602.63
2023-05-12T09:32:04.756Z,100593.88
2023-05-12T09:35:21.454Z,100599.59
2023-05-12T09:38:30.539Z,100575.28
2023-05-12T09:41:44.071Z,100601.66
2023-05-12T09:44:52.623Z,100598.78
2023-05-12T09:47:57.670Z,100572.16
2023-05-12T09:51:05.658Z,100597.91
2023-05-12T09:54:12.040Z,100602.47
2023-05-12T09:57:17.881Z,100598.91
2023-05-12T10:03:56.405Z,100604.03
2023-05-12T10:07:11.577Z,100590.41
2023-05-12T10:10:27.141Z,100611.47
2023-05-12T10:13:40.574Z,100583.22
2023-05-12T10:20:30.079Z,100505.16
2023-05-12T10:23:37.801Z,100579.97
2023-05-12T10:26:44.265Z,100591.44
2023-05-12T10:29:49.321Z,100547.81
2023-05-12T10:33:00.230Z,100607.44
2023-05-12T10:36:07.112Z,100597.19
2023-05-12T10:39:16.541Z,100609.00
2023-05-12T10:42:26.606Z,100611.47
2023-05-12T10:45:37.590Z,100608.38
2023-05-12T10:48:54.715Z,100613.50
2023-05-12T10:52:02.394Z,100624.78
2023-05-12T10:55:12.695Z,100614.13
2023-05-12T10:58:18.433Z,100608.38
2023-05-12T11:01:26.594Z,100602.09
2023-05-12T11:04:59.245Z,100622.97
2023-05-12T11:08:18.115Z,100613.56
2023-05-12T11:11:24.559Z,100626.97
2023-05-12T11:14:29.841Z,100625.44
2023-05-12T11:17:34.071Z,100637.38
2023-05-12T11:20:38.724Z,100602.28
2023-05-12T11:23:44.356Z,100650.81
2023-05-12T11:26:53.888Z,100646.94
2023-05-12T11:30:00.185Z,100664.59
2023-05-12T11:33:36.881Z,100667.44
2023-05-12T11:36:38.176Z,100664.63
2023-05-12T11:39:43.049Z,100644.03
2023-05-12T11:42:53.284Z,100666.72
2023-05-12T11:45:57.789Z,100669.47
2023-05-12T11:49:01.821Z,100670.63
2023-05-12T11:52:06.590Z,100662.09
2023-05-12T11:55:16.216Z,100647.06
2023-05-12T11:58:29.963Z,100635.06
2023-05-12T12:01:44.655Z,100656.63
2023-05-12T12:04:49.294Z,100613.28
2023-05-12T12:07:53.899Z,100641.38
2023-05-12T12:10:58.164Z,100649.09
2023-05-12T12:14:03.698Z,100642.97
2023-05-12T12:17:08.081Z,100648.88
2023-05-12T12:20:12.821Z,100653.94
2023-05-12T12:23:17.384Z,100649.84
2023-05-12T12:26:22.631Z,100650.47
2023-05-12T12:29:30.833Z,100642.97
2023-05-12T12:32:34.825Z,100648.28
2023-05-12T12:35:39.135Z,100653.19
2023-05-12T12:38:43.503Z,100650.09
2023-05-12T12:41:49.174Z,100646.75
2023-05-12T12:44:53.854Z,100648.91
2023-05-12T12:48:00.861Z,100659.47
2023-05-12T12:51:05.386Z,100656.09
2023-05-12T12:54:12.100Z,100635.78
2023-05-12T12:57:16.140Z,100660.63
2023-05-12T13:00:24.328Z,100651.25
2023-05-12T13:03:28.813Z,100642.53
2023-05-12T13:06:32.762Z,100655.47
2023-05-12T13:09:36.977Z,100635.31
2023-05-12T13:12:40.973Z,100647.75
2023-05-12T13:15:45.055Z,100639.00
2023-05-12T13:18:49.143Z,100633.47
2023-05-12T13:21:56.391Z,100628.22
2023-05-12T13:25:01.208Z,100620.28
2023-05-12T13:28:09.291Z,100618.94
2023-05-12T13:31:13.132Z,100621.09
2023-05-12T13:34:17.167Z,100619.31
2023-05-12T13:37:21.269Z,100624.66
2023-05-12T13:40:25.430Z,100622.97
2023-05-12T13:43:29.605Z,100615.91
2023-05-12T13:46:33.882Z,100620.44
2023-05-12T13:49:37.965Z,100627.97
2023-05-12T13:52:42.585Z,100623.56
2023-05-12T13:55:46.832Z,100617.22
2023-05-12T13:58:50.897Z,100623.31
2023-05-12T14:01:55.830Z,100627.19
2023-05-12T14:04:59.750Z,100627.22
2023-05-12T14:08:07.069Z,100632.22
2023-05-12T14:11:12.262Z,100640.94
2023-05-12T14:14:16.474Z,100653.44
2023-05-12T14:17:20.785Z,100646.59
2023-05-12T14:20:24.650Z,100654.31
2023-05-12T14:23:28.814Z,100654.28
2023-05-12T14:26:33.562Z,100651.06
2023-05-12T14:29:37.535Z,100642.28
2023-05-12T14:32:44.619Z,100651.16
2023-05-12T14:36:03.027Z,100666.59
2023-05-12T14:39:11.417Z,100670.47
2023-05-12T14:42:15.811Z,100644.94
2023-05-12T14:45:20.326Z,100664.59
2023-05-12T14:48:26.975Z,100649.97
2023-05-12T14:51:31.446Z,100659.59
2023-05-12T14:54:37.657Z,100678.16
2023-05-12T14:57:45.638Z,100694.88
2023-05-12T15:00:52.327Z,100717.31
2023-05-12T15:03:56.898Z,100710.97
2023-05-12T15:07:01.122Z,100711.41
2023-05-12T15:10:06.781Z,100715.78
2023-05-12T15:13:11.022Z,100708.75
2023-05-12T15:16:14.932Z,100696.31
2023-05-12T15:19:19.144Z,100707.03
2023-05-12T15:22:23.365Z,100710.34
2023-05-12T15:25:27.577Z,100703.66
2023-05-12T15:28:32.202Z,100712.91
2023-05-12T15:31:38.670Z,100710.19
2023-05-12T15:34:48.521Z,100700.84
2023-05-12T15:37:56.487Z,100715.03
2023-05-12T15:41:00.719Z,100719.75
2023-05-12T15:44:04.849Z,100703.44
2023-05-12T15:47:08.710Z,100715.69
2023-05-12T15:50:12.700Z,100716.25
2023-05-12T15:53:16.770Z,100708.19
2023-05-12T15:56:23.693Z,100702.50
2023-05-12T15:59:29.360Z,100706.06
2023-05-12T16:02:36.165Z,100706.97
2023-05-12T16:05:42.130Z,100698.91
2023-05-12T16:08:46.416Z,100713.72
2023-05-12T16:11:54.436Z,100709.66
2023-05-12T16:14:58.493Z,100698.69
2023-05-12T16:18:02.816Z,100705.16
2023-05-12T16:21:07.288Z,100712.91
2023-05-12T16:24:12.609Z,100706.28
2023-05-12T16:27:16.773Z,100704.06
2023-05-12T16:30:20.750Z,100709.22
2023-05-12T16:33:24.684Z,100700.09
2023-05-12T16:36:55.114Z,100575.78
2023-05-12T16:40:02.963Z,100677.66
2023-05-12T16:43:07.786Z,100699.59
2023-05-12T16:46:11.879Z,100700.56
2023-05-12T16:49:17.426Z,100703.84
2023-05-12T16:52:21.754Z,100710.81
2023-05-12T16:55:25.861Z,100713.25
2023-05-12T16:58:33.334Z,100713.00
2023-05-12T17:01:37.560Z,100702.78
2023-05-12T17:04:42.431Z,100704.91
2023-05-12T17:07:46.782Z,100709.19
2023-05-12T17:10:52.076Z,100696.59
2023-05-12T17:13:56.492Z,100698.69
2023-05-12T17:17:00.604Z,100689.25
2023-05-12T17:20:05.182Z,100704.31
2023-05-12T17:23:10.078Z,100692.38
2023-05-12T17:26:14.793Z,100700.97
2023-05-12T17:29:21.811Z,100689.34
2023-05-12T17:32:25.692Z,100681.34
2023-05-12T17:35:29.728Z,100685.50
2023-05-12T17:38:33.790Z,100676.59
2023-05-12T17:41:38.106Z,100682.03
2023-05-12T17:44:42.596Z,100689.91
2023-05-12T17:47:50.012Z,100679.44
2023-05-12T17:50:54.512Z,100670.72
2023-05-12T17:53:58.564Z,100668.56
2023-05-12T17:57:04.122Z,100669.06
2023-05-12T18:00:12.990Z,100679.38
2023-05-12T18:03:32.007Z,100663.38
2023-05-12T18:06:41.660Z,100679.38
2023-05-12T18:09:45.799Z,100673.28
2023-05-12T18:12:53.646Z,100661.41
2023-05-12T18:15:57.676Z,100648.97
2023-05-12T18:19:01.914Z,100681.34
2023-05-12T18:22:06.703Z,100666.94
2023-05-12T18:25:13.623Z,100663.59
2023-05-12T18:28:18.287Z,100681.81
2023-05-12T18:31:22.815Z,100677.16
2023-05-12T18:34:31.017Z,100675.19
2023-05-12T18:37:35.437Z,100675.63
2023-05-12T18:40:40.278Z,100668.06
2023-05-12T18:43:45.669Z,100671.03
2023-05-12T18:46:52.131Z,100683.22
2023-05-12T18:49:56.073Z,100678.75
2023-05-12T18:53:00.040Z,100644.00
2023-05-12T18:56:04.188Z,100678.19
2023-05-12T18:59:08.253Z,100670.78
2023-05-12T19:02:12.249Z,100667.09
2023-05-12T19:05:16.773Z,100649.81
2023-05-12T19:08:21.181Z,100673.78
2023-05-12T19:11:25.200Z,100673.50
2023-05-12T19:14:29.527Z,100647.44
2023-05-12T19:17:33.434Z,100662.63
2023-05-12T19:20:38.579Z,100659.13
2023-05-12T19:23:42.583Z,100658.41
2023-05-12T19:26:46.618Z,100639.56
2023-05-12T19:29:50.596Z,100654.16
2023-05-12T19:32:54.679Z,100659.13
2023-05-12T19:35:58.830Z,100650.59
2023-05-12T19:39:03.404Z,100640.41
2023-05-12T19:42:10.498Z,100647.59
2023-05-12T19:45:21.750Z,100628.53
2023-05-12T19:48:26.079Z,100645.72
2023-05-12T19:51:30.570Z,100648.84
2023-05-12T19:54:34.377Z,100654.47
2023-05-12T19:57:40.105Z,100647.31
2023-05-12T20:00:49.817Z,100639.31
2023-05-12T20:03:54.744Z,100636.47
2023-05-12T20:06:59.314Z,100624.25
2023-05-12T20:10:03.894Z,100648.94
2023-05-12T20:13:13.491Z,100646.97
2023-05-12T20:16:19.291Z,100648.47
2023-05-12T20:19:23.902Z,100643.81
2023-05-12T20:22:28.090Z,100630.78
2023-05-12T20:25:34.012Z,100640.41
2023-05-12T20:28:38.309Z,100660.47
2023-05-12T20:31:44.665Z,100624.53
2023-05-12T20:34:52.719Z,100640.91
2023-05-12T20:38:01.875Z,100651.53
2023-05-12T20:41:09.602Z,100625.63
2023-05-12T20:44:13.661Z,100627.50
2023-05-12T20:47:17.720Z,100628.28
2023-05-12T20:50:23.452Z,100632.81
2023-05-12T20:53:40.614Z,100634.47
2023-05-12T20:56:46.977Z,100633.44
2023-05-12T20:59:53.483Z,100630.72
2023-05-12T21:03:00.503Z,100638.25
2023-05-12T21:06:06.479Z,100629.53
2023-05-12T21:09:10.695Z,100638.31
2023-05-12T21:12:17.788Z,100639.00
2023-05-12T21:15:21.637Z,100641.22
2023-05-12T21:18:25.750Z,100649.53
2023-05-12T21:21:29.745Z,100648.38
2023-05-12T21:24:34.654Z,100644.16
2023-05-12T21:27:44.588Z,100641.16
2023-05-12T21:30:48.772Z,100651.53
2023-05-12T21:33:52.804Z,100646.22
2023-05-12T21:36:58.970Z,100648.59
2023-05-12T21:40:04.644Z,100647.06
2023-05-12T21:43:10.070Z,100641.53
2023-05-12T21:46:19.319Z,100642.75
2023-05-12T21:49:28.050Z,100653.13
2023-05-12T21:52:36.383Z,100651.25
2023-05-12T21:55:42.435Z,100647.94
2023-05-12T21:58:46.354Z,100660.69
2023-05-12T22:01:50.216Z,100667.81
2023-05-12T22:04:54.248Z,100657.88
2023-05-12T22:08:00.651Z,100649.91
2023-05-12T22:11:07.492Z,100659.13
2023-05-12T22:14:14.221Z,100639.38
2023-05-12T22:17:18.353Z,100640.56
2023-05-12T22:20:23.735Z,100643.38
2023-05-12T22:23:28.046Z,100639.06
2023-05-12T22:26:37.711Z,100641.94
2023-05-12T22:29:41.735Z,100612.25
2023-05-12T22:32:46.493Z,100634.63
2023-05-12T22:36:00.170Z,100595.50
2023-05-12T22:39:05.956Z,100638.97
2023-05-12T22:42:09.924Z,100628.28
2023-05-12T22:45:13.863Z,100592.00
2023-05-12T22:48:17.877Z,100626.09
2023-05-12T22:51:25.371Z,100605.28
2023-05-12T22:54:30.017Z,100609.59
2023-05-12T22:57:37.306Z,100614.78
2023-05-12T23:00:47.029Z,100615.78
2023-05-12T23:03:59.136Z,100612.84
2023-05-12T23:07:03.229Z,100610.47
2023-05-12T23:10:10.369Z,100587.84
2023-05-12T23:13:16.756Z,100609.63
2023-05-12T23:16:26.388Z,100604.56
2023-05-12T23:19:55.527Z,100620.81
2023-05-12T23:23:13.176Z,100608.06
2023-05-12T23:26:20.972Z,100608.75
2023-05-12T23:29:25.088Z,100603.41
2023-05-12T23:32:29.097Z,100584.75
2023-05-12T23:35:33.248Z,100589.75
2023-05-12T23:38:37.218Z,100596.88
2023-05-12T23:41:41.225Z,100602.06
2023-05-12T23:44:45.185Z,100589.53
2023-05-12T23:47:51.042Z,100592.38
2023-05-12T23:50:57.572Z,100590.03
2023-05-12T23:54:01.564Z,100589.91
2023-05-12T23:57:25.321Z,100528.44
